Kona International At Keahole, HI

12:13 AM HST on August 30, 2014 (GMT -1000)
Kona International At Keahole | Change Station
CLOSE
Current Station
Airport
Location: Keahole Point,
Elevation: 43 ft
Nearby Weather Stations
Active Advisory: High Surf Advisory

Elev 43 ft 19.74 °N, 156.05 °W | Updated 20 minutes ago

Overcast
Overcast
79 °F
Feels Like 79 °F
N
6
Wind Variable Wind from ESE

Today
High -- | Low -- °F
--% Chance of Precip.
Yesterday
High -- | Low -- °F
Precip. -- in
6:08 AM 6:40 PM
Waxing Crescent, 21% visible
Pressure 29.91 in
Visibility 10.0 miles
Clouds Mostly Cloudy 3600 ft
Overcast 4200 ft
Dew Point 68 °F
Humidity 69%
Rainfall 0.00 in
Snow Depth Not available.
UV 0 out of 12
Pollen Not available.
Air Quality Not available.
Flu Activity Not available.
METAR PHKO 300953Z AUTO 11005KT 10SM BKN036 OVC042 26/20 A2991 RMK AO2 SLP128 T02610200 403000244 TSNO

More Conditions Fewer Conditions

Pressure 29.91 in
Visibility 10.0 miles
Clouds Mostly Cloudy 3600 ft
Overcast 4200 ft
Dew Point 68 °F
Humidity 69%
Rainfall 0.00 in
Snow Depth Not available.
UV 0 out of 12
Pollen Not available.
Air Quality Not available.
Flu Activity Not available.
METAR PHKO 300953Z AUTO 11005KT 10SM BKN036 OVC042 26/20 A2991 RMK AO2 SLP128 T02610200 403000244 TSNO

More Conditions Fewer Conditions

10-Day Weather Forecast

Almanac

Astronomy

Aug. 30, 2014 Rise Set
Actual Time 6:08 AM HST 6:40 PM HST
Civil Twilight 5:46 AM HST 7:03 PM HST
Nautical Twilight 5:19 AM HST 7:29 PM HST
Astronomical Twilight 4:53 AM HST 7:55 PM HST
Moon 10:23 AM HST 10:07 PM HST
Length of Visible Light 13h 17m
Length of Day
12h 32m
Tomorrow will be 1m 4s shorter.
Waxing Crescent, 21% of the Moon is Illuminated
Today
Waxing Crescent
Sep 2
First Quarter
Sep 8
Full
Sep 15
Last Quarter
Sep 24
New

Today's Extremes

State Highs State Lows

Community

WunderPhotos

Upload Photos

1,748,481 photos uploaded!

Nearby

Snow Depth

Station Depth Elevation
No new snow has been reported.

Earthquake Activity

City Distance Mag. Time & Date
No recent earthquake activity has been reported nearby.
Minimum magnitude displayed is 2.5.

Coastal Water Temperatures

Place Temperature
No Stations Reporting

Nearby Weather Stations